Time;durP1;ratioP1;P1;durP2;ratioP2;P2;SDS_P1;SDS_P2;PMS_P1;PMS_P2;Temp;Humidity;BMP_temperature;BMP_pressure;BME280_temperature;BME280_humidity;BME280_pressure;Samples;Min_cycle;Max_cycle;Signal;HPM_P1;HPM_P2
2021/07/20 00:01:39;;;;;;;;;;;13.40;99.90;;;;;;5090108;28;19915;-49
2021/07/20 00:04:04;;;;;;;;;;;13.40;99.90;;;;;;5088641;28;19915;-50
2021/07/20 00:06:30;;;;;;;;;;;13.40;99.90;;;;;;5089902;28;19912;-51
2021/07/20 00:08:55;;;;;;;;;;;13.40;99.90;;;;;;5089915;28;19965;-49
2021/07/20 00:11:21;;;;;;;;;;;13.40;99.90;;;;;;5090241;28;20606;-50
2021/07/20 00:13:46;;;;;;;;;;;13.40;99.90;;;;;;5090082;28;19912;-50
2021/07/20 00:16:14;;;;;;;;;;;13.40;99.90;;;;;;5090043;28;19912;-51
2021/07/20 00:18:40;;;;;;;;;;;13.40;99.90;;;;;;5090488;28;19908;-49
2021/07/20 00:21:07;;;;;;;;;;;13.40;99.90;;;;;;5090245;28;19954;-51
2021/07/20 00:23:32;;;;;;;;;;;13.40;99.90;;;;;;5089973;28;20019;-53
2021/07/20 00:25:58;;;;;;;;;;;13.40;99.90;;;;;;5089514;28;20321;-49
2021/07/20 00:28:24;;;;;;;;;;;13.40;99.90;;;;;;5090187;28;19916;-52
2021/07/20 00:30:49;;;;;;;;;;;13.40;99.90;;;;;;5089644;28;20026;-48
2021/07/20 00:33:15;;;;;;;;;;;13.40;99.90;;;;;;5089888;28;19909;-54
2021/07/20 00:35:43;;;;;;;;;;;13.30;99.90;;;;;;5089303;28;19912;-53
2021/07/20 00:38:11;;;;;;;;;;;13.30;99.90;;;;;;5090059;28;19908;-53
2021/07/20 00:40:37;;;;;;;;;;;13.30;99.90;;;;;;5089702;28;19981;-49
2021/07/20 00:43:03;;;;;;;;;;;13.30;99.90;;;;;;5089837;28;20508;-52
2021/07/20 00:45:29;;;;;;;;;;;13.30;99.90;;;;;;5089752;28;19985;-54
2021/07/20 00:47:55;;;;;;;;;;;13.30;99.90;;;;;;5090095;28;19970;-54
2021/07/20 00:50:24;;;;;;;;;;;13.30;99.90;;;;;;5089780;28;19915;-48
2021/07/20 00:52:49;;;;;;;;;;;13.30;99.90;;;;;;5089998;28;19950;-51
2021/07/20 00:55:15;;;;;;;;;;;13.20;99.90;;;;;;5088732;28;20293;-47
2021/07/20 00:57:41;;;;;;;;;;;13.30;99.90;;;;;;5090900;28;20450;-48
2021/07/20 01:00:09;;;;;;;;;;;13.20;99.90;;;;;;5068999;28;20009;-47
2021/07/20 01:02:34;;;;;;;;;;;13.20;99.90;;;;;;5090922;28;19912;-48
2021/07/20 01:05:00;;;;;;;;;;;13.20;99.90;;;;;;5091583;28;19912;-50
2021/07/20 01:07:26;;;;;;;;;;;13.20;99.90;;;;;;5093261;28;19914;-53
2021/07/20 01:09:55;;;;;;;;;;;13.20;99.90;;;;;;5093100;28;19970;-52
2021/07/20 01:12:22;;;;;;;;;;;13.20;99.90;;;;;;5093147;28;19908;-47
2021/07/20 01:14:48;;;;;;;;;;;13.10;99.90;;;;;;5092883;28;19908;-51
2021/07/20 01:17:14;;;;;;;;;;;13.10;99.90;;;;;;5092963;28;19913;-47
2021/07/20 01:19:53;;;;;;;;;;;13.10;99.90;;;;;;5093302;28;20003;-47
2021/07/20 01:22:29;;;;;;;;;;;13.10;99.90;;;;;;5089034;28;20324;-52
2021/07/20 01:24:56;;;;;;;;;;;13.10;99.90;;;;;;5092588;28;19951;-50
2021/07/20 01:27:21;;;;;;;;;;;13.10;99.90;;;;;;5092808;28;19912;-47
2021/07/20 01:29:47;;;;;;;;;;;13.10;99.90;;;;;;5092680;28;19961;-48
2021/07/20 01:32:13;;;;;;;;;;;13.10;99.90;;;;;;5099249;22;19925;-59
2021/07/20 01:34:39;;;;;;;;;;;13.10;99.90;;;;;;5070335;28;19941;-56
2021/07/20 01:37:05;;;;;;;;;;;13.10;99.90;;;;;;5072882;28;19919;-58
2021/07/20 01:39:31;;;;;;;;;;;13.10;99.90;;;;;;5073021;28;19919;-56
2021/07/20 01:41:57;;;;;;;;;;;13.10;99.90;;;;;;5072385;28;19908;-55
2021/07/20 01:44:22;;;;;;;;;;;13.00;99.90;;;;;;5072323;28;19908;-59
2021/07/20 01:46:50;;;;;;;;;;;13.00;99.90;;;;;;5072254;28;19908;-59
2021/07/20 01:49:17;;;;;;;;;;;13.00;99.90;;;;;;5072960;28;20397;-59
2021/07/20 01:51:42;;;;;;;;;;;12.90;99.90;;;;;;5087987;28;19915;-58
2021/07/20 01:54:08;;;;;;;;;;;12.90;99.90;;;;;;5072485;28;19912;-58
2021/07/20 01:56:34;;;;;;;;;;;12.90;99.90;;;;;;5072167;28;19919;-59
2021/07/20 01:58:59;;;;;;;;;;;12.90;99.90;;;;;;5072422;28;20306;-59
2021/07/20 02:01:27;;;;;;;;;;;12.80;99.90;;;;;;5072130;28;19962;-58
2021/07/20 02:04:12;;;;;;;;;;;12.80;99.90;;;;;;5070798;28;20007;-57
2021/07/20 02:09:25;;;;;;;;;;;12.60;99.90;;;;;;5072578;28;19915;-57
2021/07/20 02:11:54;;;;;;;;;;;12.60;99.90;;;;;;5072424;28;20341;-58
2021/07/20 02:14:22;;;;;;;;;;;12.60;99.90;;;;;;5064811;28;19908;-59
2021/07/20 02:16:49;;;;;;;;;;;12.50;99.90;;;;;;5072203;28;20371;-58
2021/07/20 02:19:20;;;;;;;;;;;12.50;99.90;;;;;;5072195;28;20386;-58
2021/07/20 02:21:48;;;;;;;;;;;12.50;99.90;;;;;;5071994;28;19908;-57
2021/07/20 02:24:17;;;;;;;;;;;12.50;99.90;;;;;;5071521;28;19908;-59
2021/07/20 02:26:45;;;;;;;;;;;12.40;99.90;;;;;;5071648;28;19919;-59
2021/07/20 02:29:13;;;;;;;;;;;12.40;99.90;;;;;;5071832;28;19917;-58
2021/07/20 02:31:39;;;;;;;;;;;12.40;99.90;;;;;;5071469;28;19916;-59
2021/07/20 02:34:05;;;;;;;;;;;12.40;99.90;;;;;;5071287;28;19997;-59
2021/07/20 02:36:30;;;;;;;;;;;12.40;99.90;;;;;;5071207;28;19959;-58
2021/07/20 02:38:57;;;;;;;;;;;12.40;99.90;;;;;;5071383;28;20461;-58
2021/07/20 02:41:23;;;;;;;;;;;12.40;99.90;;;;;;5071745;28;19913;-57
2021/07/20 02:43:49;;;;;;;;;;;12.30;99.90;;;;;;5071658;28;19916;-59
2021/07/20 02:46:16;;;;;;;;;;;12.30;99.90;;;;;;5071166;28;19912;-58
2021/07/20 02:48:42;;;;;;;;;;;12.30;99.90;;;;;;5071635;28;19914;-59
2021/07/20 02:51:09;;;;;;;;;;;12.30;99.90;;;;;;5071240;28;19968;-59
2021/07/20 02:53:36;;;;;;;;;;;12.30;99.90;;;;;;5071252;28;19915;-59
2021/07/20 02:56:03;;;;;;;;;;;12.30;99.90;;;;;;5069597;28;19938;-59
2021/07/20 02:58:28;;;;;;;;;;;12.30;99.90;;;;;;5070103;28;19931;-57
2021/07/20 03:00:55;;;;;;;;;;;12.30;99.90;;;;;;5070997;28;20370;-59
2021/07/20 03:03:21;;;;;;;;;;;12.30;99.90;;;;;;5071328;28;19908;-57
2021/07/20 03:05:47;;;;;;;;;;;12.30;99.90;;;;;;5069598;28;19919;-59
2021/07/20 03:08:14;;;;;;;;;;;12.20;99.90;;;;;;5070027;28;19908;-59
2021/07/20 03:10:40;;;;;;;;;;;12.20;99.90;;;;;;5069714;28;19916;-58
2021/07/20 03:13:08;;;;;;;;;;;12.20;99.90;;;;;;5070453;28;19987;-60
2021/07/20 03:15:34;;;;;;;;;;;12.20;99.90;;;;;;5070865;28;19916;-59
2021/07/20 03:18:01;;;;;;;;;;;12.10;99.90;;;;;;5070779;28;19909;-58
2021/07/20 03:20:27;;;;;;;;;;;12.10;99.90;;;;;;5071125;28;20382;-59
2021/07/20 03:22:53;;;;;;;;;;;12.10;99.90;;;;;;5070968;28;19915;-58
2021/07/20 03:25:19;;;;;;;;;;;12.10;99.90;;;;;;5069439;28;19995;-56
2021/07/20 03:27:45;;;;;;;;;;;12.10;99.90;;;;;;5070737;28;19909;-60
2021/07/20 03:30:11;;;;;;;;;;;12.10;99.90;;;;;;5070467;28;19966;-58
2021/07/20 03:32:38;;;;;;;;;;;12.10;99.90;;;;;;5070794;28;19997;-57
2021/07/20 03:35:04;;;;;;;;;;;12.00;99.90;;;;;;5069802;28;20386;-59
2021/07/20 03:37:30;;;;;;;;;;;12.00;99.90;;;;;;5071109;28;20018;-59
2021/07/20 03:39:57;;;;;;;;;;;12.00;99.90;;;;;;5070784;28;20457;-58
2021/07/20 03:42:24;;;;;;;;;;;11.90;99.90;;;;;;5070715;28;19962;-56
2021/07/20 03:44:49;;;;;;;;;;;11.90;99.90;;;;;;5070452;28;19944;-59
2021/07/20 03:47:15;;;;;;;;;;;11.80;99.90;;;;;;5062824;28;19915;-59
2021/07/20 03:49:42;;;;;;;;;;;11.80;99.90;;;;;;5071131;28;19908;-59
2021/07/20 03:52:08;;;;;;;;;;;11.80;99.90;;;;;;5070957;28;19912;-59
2021/07/20 03:54:34;;;;;;;;;;;11.80;99.90;;;;;;5070258;28;20398;-58
2021/07/20 03:57:00;;;;;;;;;;;11.80;99.90;;;;;;5070588;28;20009;-59
2021/07/20 03:59:27;;;;;;;;;;;11.80;99.90;;;;;;5070456;28;20434;-57
2021/07/20 04:01:55;;;;;;;;;;;11.80;99.90;;;;;;5067197;28;19992;-58
2021/07/20 04:04:22;;;;;;;;;;;11.80;99.90;;;;;;5070686;28;20007;-59
2021/07/20 04:06:48;;;;;;;;;;;11.80;99.90;;;;;;5070553;28;20034;-57
2021/07/20 04:09:14;;;;;;;;;;;11.80;99.90;;;;;;5070836;28;19909;-57
2021/07/20 04:11:40;;;;;;;;;;;11.80;99.90;;;;;;5070369;28;19909;-56
2021/07/20 04:14:06;;;;;;;;;;;11.80;99.90;;;;;;5070254;28;19908;-59
2021/07/20 04:16:33;;;;;;;;;;;11.80;99.90;;;;;;5070444;28;19909;-59
2021/07/20 04:18:58;;;;;;;;;;;11.80;99.90;;;;;;5069414;28;20341;-59
2021/07/20 04:21:24;;;;;;;;;;;11.80;99.90;;;;;;5070632;28;19917;-59
2021/07/20 04:23:50;;;;;;;;;;;11.80;99.90;;;;;;5070384;28;19908;-57
2021/07/20 04:26:17;;;;;;;;;;;11.80;99.90;;;;;;5070178;28;19913;-56
2021/07/20 04:28:43;;;;;;;;;;;11.80;99.90;;;;;;5086119;28;20429;-58
2021/07/20 04:31:09;;;;;;;;;;;11.90;99.90;;;;;;5073561;28;19916;-57
2021/07/20 04:33:35;;;;;;;;;;;11.90;99.90;;;;;;5074767;28;20394;-58
2021/07/20 04:36:01;;;;;;;;;;;12.00;99.90;;;;;;5074417;28;19916;-59
2021/07/20 04:38:29;;;;;;;;;;;12.00;99.90;;;;;;5074484;28;19909;-58
2021/07/20 04:40:56;;;;;;;;;;;12.00;99.90;;;;;;5074148;28;19909;-56
2021/07/20 04:43:21;;;;;;;;;;;12.00;99.90;;;;;;5074661;28;19915;-61
2021/07/20 04:45:49;;;;;;;;;;;12.00;99.90;;;;;;5073829;28;19924;-59
2021/07/20 04:48:15;;;;;;;;;;;12.10;99.90;;;;;;5074611;28;19912;-58
2021/07/20 04:50:41;;;;;;;;;;;12.20;99.90;;;;;;5074503;28;20007;-60
2021/07/20 04:53:08;;;;;;;;;;;12.30;99.90;;;;;;5075270;28;19916;-59
2021/07/20 04:55:35;;;;;;;;;;;12.30;99.90;;;;;;5075667;28;20374;-55
2021/07/20 04:58:02;;;;;;;;;;;12.40;99.90;;;;;;5074743;28;20003;-59
2021/07/20 05:00:27;;;;;;;;;;;12.50;99.90;;;;;;5074271;28;19909;-57
2021/07/20 05:02:53;;;;;;;;;;;12.60;99.90;;;;;;5074683;28;19962;-58
2021/07/20 05:05:22;;;;;;;;;;;12.60;99.90;;;;;;5074561;28;19912;-57
2021/07/20 05:07:51;;;;;;;;;;;12.70;99.90;;;;;;5074617;28;19942;-60
2021/07/20 05:10:17;;;;;;;;;;;12.80;99.90;;;;;;5066824;28;19920;-57
2021/07/20 05:12:43;;;;;;;;;;;12.80;99.90;;;;;;5074451;28;19908;-59
2021/07/20 05:15:09;;;;;;;;;;;12.90;99.90;;;;;;5074220;28;20429;-56
2021/07/20 05:17:35;;;;;;;;;;;13.00;99.90;;;;;;5074388;28;19962;-59
2021/07/20 05:20:02;;;;;;;;;;;13.10;99.90;;;;;;5073991;28;19908;-61
2021/07/20 05:22:28;;;;;;;;;;;13.10;99.90;;;;;;5073864;28;19915;-59
2021/07/20 05:24:53;;;;;;;;;;;13.20;99.90;;;;;;5074371;28;20011;-58
2021/07/20 05:27:19;;;;;;;;;;;13.20;99.90;;;;;;5074450;28;19908;-59
2021/07/20 05:29:46;;;;;;;;;;;13.30;99.90;;;;;;5074159;28;19912;-59
2021/07/20 05:32:16;;;;;;;;;;;13.40;99.90;;;;;;5073568;28;19977;-57
2021/07/20 05:34:42;;;;;;;;;;;13.50;99.90;;;;;;5072784;28;20436;-59
2021/07/20 05:37:09;;;;;;;;;;;13.70;99.90;;;;;;5073563;28;19908;-58
2021/07/20 05:39:36;;;;;;;;;;;13.70;99.90;;;;;;5073372;28;19957;-58
2021/07/20 05:42:04;;;;;;;;;;;13.80;99.90;;;;;;5073365;28;20390;-59
2021/07/20 05:44:30;;;;;;;;;;;13.90;99.90;;;;;;5073098;28;20278;-60
2021/07/20 05:46:56;;;;;;;;;;;13.90;99.90;;;;;;5089104;28;19913;-58
2021/07/20 05:49:21;;;;;;;;;;;14.00;99.90;;;;;;5073236;28;19927;-61
2021/07/20 05:51:47;;;;;;;;;;;14.10;99.90;;;;;;5073214;28;19916;-60
2021/07/20 05:54:13;;;;;;;;;;;14.20;99.90;;;;;;5073622;28;20007;-56
2021/07/20 05:56:41;;;;;;;;;;;14.30;99.90;;;;;;5073358;28;19967;-59
2021/07/20 05:59:06;;;;;;;;;;;14.40;99.90;;;;;;5073017;28;19909;-60
2021/07/20 06:01:32;;;;;;;;;;;14.50;99.90;;;;;;5073111;28;19908;-60
2021/07/20 06:03:59;;;;;;;;;;;14.60;99.90;;;;;;5072560;28;19931;-60
2021/07/20 06:06:28;;;;;;;;;;;14.60;99.90;;;;;;5072272;28;19916;-59
2021/07/20 06:08:59;;;;;;;;;;;14.70;99.90;;;;;;5072827;28;19920;-57
2021/07/20 06:11:25;;;;;;;;;;;14.70;99.90;;;;;;5072181;28;20256;-58
2021/07/20 06:13:51;;;;;;;;;;;14.80;99.90;;;;;;5072831;28;20007;-58
2021/07/20 06:16:20;;;;;;;;;;;14.80;99.90;;;;;;5072446;28;20220;-58
2021/07/20 06:18:45;;;;;;;;;;;14.90;99.90;;;;;;5088100;28;20053;-58
2021/07/20 06:21:11;;;;;;;;;;;14.90;99.90;;;;;;5072707;28;19971;-58
2021/07/20 06:23:42;;;;;;;;;;;15.00;99.90;;;;;;5067945;28;19915;-58
2021/07/20 06:26:08;;;;;;;;;;;15.00;99.90;;;;;;5072565;28;19912;-60
2021/07/20 06:28:35;;;;;;;;;;;15.10;99.90;;;;;;5073026;28;19908;-59
2021/07/20 06:31:01;;;;;;;;;;;15.20;99.90;;;;;;5072946;28;19963;-60
2021/07/20 06:33:27;;;;;;;;;;;15.30;99.90;;;;;;5073047;28;19913;-60
2021/07/20 06:35:53;;;;;;;;;;;15.40;99.90;;;;;;5070432;28;20281;-59
2021/07/20 06:38:19;;;;;;;;;;;15.40;99.90;;;;;;5071736;28;20003;-60
2021/07/20 06:40:47;;;;;;;;;;;15.40;99.90;;;;;;5071913;28;19984;-59
2021/07/20 06:43:14;;;;;;;;;;;15.60;99.90;;;;;;5071715;28;19909;-59
2021/07/20 06:45:41;;;;;;;;;;;15.90;99.90;;;;;;5072193;28;19920;-60
2021/07/20 06:48:10;;;;;;;;;;;16.00;99.90;;;;;;5072168;28;19935;-58
2021/07/20 06:50:36;;;;;;;;;;;16.00;99.90;;;;;;5086612;28;19916;-60
2021/07/20 06:53:03;;;;;;;;;;;16.00;99.90;;;;;;5070443;28;20403;-60
2021/07/20 06:55:29;;;;;;;;;;;16.10;99.90;;;;;;5071074;28;20406;-58
2021/07/20 06:57:54;;;;;;;;;;;16.30;99.90;;;;;;5086875;28;19919;-60
2021/07/20 07:00:20;;;;;;;;;;;16.40;99.90;;;;;;5071310;28;19908;-58
2021/07/20 07:02:51;;;;;;;;;;;16.50;99.90;;;;;;5070836;28;20004;-60
2021/07/20 07:05:17;;;;;;;;;;;16.60;99.90;;;;;;5062835;28;19913;-59
2021/07/20 07:07:45;;;;;;;;;;;16.60;99.90;;;;;;5070665;28;20021;-60
2021/07/20 07:10:12;;;;;;;;;;;16.70;99.90;;;;;;5071022;28;20410;-59
2021/07/20 07:12:38;;;;;;;;;;;16.70;99.90;;;;;;5070746;28;19916;-60
2021/07/20 07:15:04;;;;;;;;;;;16.90;99.90;;;;;;5070493;28;20445;-57
2021/07/20 07:17:31;;;;;;;;;;;17.10;99.90;;;;;;5071112;28;19916;-60
2021/07/20 07:19:57;;;;;;;;;;;17.30;99.90;;;;;;5070802;28;19909;-60
2021/07/20 07:22:23;;;;;;;;;;;17.50;99.90;;;;;;5071092;28;20324;-61
2021/07/20 07:24:51;;;;;;;;;;;17.70;99.90;;;;;;5070518;28;20398;-59
2021/07/20 07:27:17;;;;;;;;;;;17.90;99.90;;;;;;5063443;28;19913;-59
2021/07/20 07:29:43;;;;;;;;;;;18.00;99.90;;;;;;5071068;28;19908;-61
2021/07/20 07:32:08;;;;;;;;;;;18.30;99.90;;;;;;5091542;23;20283;-52
2021/07/20 07:34:35;;;;;;;;;;;18.30;99.90;;;;;;5067967;28;19909;-52
2021/07/20 07:37:01;;;;;;;;;;;18.40;99.90;;;;;;5070110;28;20044;-52
2021/07/20 07:39:27;;;;;;;;;;;18.50;99.90;;;;;;5070563;28;19909;-48
2021/07/20 07:41:53;;;;;;;;;;;18.70;99.90;;;;;;5070073;28;19915;-53
2021/07/20 07:44:20;;;;;;;;;;;18.80;99.90;;;;;;5070243;28;20015;-50
2021/07/20 07:46:46;;;;;;;;;;;18.80;99.90;;;;;;5070039;28;20329;-46
2021/07/20 07:49:12;;;;;;;;;;;19.00;99.90;;;;;;5070013;28;19965;-48
2021/07/20 07:51:41;;;;;;;;;;;19.30;99.90;;;;;;5070218;28;20374;-47
2021/07/20 07:54:07;;;;;;;;;;;19.30;99.90;;;;;;5069886;28;19962;-47
2021/07/20 07:56:33;;;;;;;;;;;19.60;99.90;;;;;;5070137;28;19908;-50
2021/07/20 07:58:59;;;;;;;;;;;19.30;99.90;;;;;;5070429;28;19940;-50
2021/07/20 08:01:26;;;;;;;;;;;19.30;99.90;;;;;;5070098;28;19952;-52
2021/07/20 08:03:54;;;;;;;;;;;19.60;99.90;;;;;;5071451;28;19908;-53
2021/07/20 08:06:21;;;;;;;;;;;19.90;99.90;;;;;;5073869;28;20014;-48
2021/07/20 08:08:48;;;;;;;;;;;20.10;99.90;;;;;;5074233;28;19919;-50
2021/07/20 08:11:14;;;;;;;;;;;20.10;99.90;;;;;;5055955;28;20010;-51
2021/07/20 08:13:41;;;;;;;;;;;20.00;99.90;;;;;;5073933;28;20426;-53
2021/07/20 08:16:07;;;;;;;;;;;19.60;99.60;;;;;;5073867;28;19909;-52
2021/07/20 08:18:33;;;;;;;;;;;19.40;99.90;;;;;;5074213;28;19919;-55
2021/07/20 08:21:03;;;;;;;;;;;19.10;99.90;;;;;;5073803;28;19908;-53
2021/07/20 08:23:29;;;;;;;;;;;18.90;99.90;;;;;;5073716;28;19912;-48
2021/07/20 08:25:56;;;;;;;;;;;19.00;99.90;;;;;;5073526;28;19912;-54
2021/07/20 08:28:25;;;;;;;;;;;19.30;99.90;;;;;;5055852;28;19913;-51
2021/07/20 08:30:51;;;;;;;;;;;19.70;99.90;;;;;;5073950;28;19915;-53
2021/07/20 08:33:19;;;;;;;;;;;20.10;99.90;;;;;;5073147;28;20332;-50
2021/07/20 08:35:45;;;;;;;;;;;20.40;99.90;;;;;;5073135;28;19908;-49
2021/07/20 08:38:12;;;;;;;;;;;20.40;99.90;;;;;;5073567;28;20308;-51
2021/07/20 08:40:50;;;;;;;;;;;20.40;99.60;;;;;;5073477;28;20375;-55
2021/07/20 08:43:34;;;;;;;;;;;20.40;99.90;;;;;;5073495;28;19913;-48
2021/07/20 08:45:59;;;;;;;;;;;20.20;99.90;;;;;;5073130;28;20383;-54
2021/07/20 08:48:42;;;;;;;;;;;20.10;99.60;;;;;;5073537;28;19936;-48
2021/07/20 08:51:11;;;;;;;;;;;20.20;99.50;;;;;;5073116;28;19959;-53
2021/07/20 08:53:49;;;;;;;;;;;20.00;98.50;;;;;;5073747;28;19912;-48
2021/07/20 08:56:16;;;;;;;;;;;19.80;99.90;;;;;;5072874;28;19909;-51
2021/07/20 08:58:43;;;;;;;;;;;19.70;99.90;;;;;;5073602;28;20038;-55
2021/07/20 09:01:09;;;;;;;;;;;19.70;99.90;;;;;;5073279;28;19915;-52
2021/07/20 09:03:52;;;;;;;;;;;19.80;99.90;;;;;;5073364;28;19991;-54
2021/07/20 09:06:28;;;;;;;;;;;20.00;99.80;;;;;;5070069;28;19997;-54
2021/07/20 09:09:02;;;;;;;;;;;20.00;98.60;;;;;;5072949;28;20378;-51
2021/07/20 09:11:45;;;;;;;;;;;19.90;98.60;;;;;;5072832;28;19915;-48
2021/07/20 09:14:17;;;;;;;;;;;19.80;99.90;;;;;;5072667;28;19917;-54
2021/07/20 09:16:49;;;;;;;;;;;19.90;99.90;;;;;;5071683;28;19982;-49
2021/07/20 09:19:27;;;;;;;;;;;19.80;99.30;;;;;;5064984;28;19915;-53
2021/07/20 09:21:56;;;;;;;;;;;19.90;99.80;;;;;;5072569;28;19908;-56
2021/07/20 09:24:37;;;;;;;;;;;20.10;99.90;;;;;;5072718;28;20314;-49
2021/07/20 09:27:11;;;;;;;;;;;20.10;99.10;;;;;;5070872;28;19913;-50
2021/07/20 09:29:38;;;;;;;;;;;19.90;98.50;;;;;;5072753;28;19909;-55
2021/07/20 09:32:36;;;;;;;;;;;20.00;99.00;;;;;;5072222;28;19916;-57
2021/07/20 09:35:04;;;;;;;;;;;20.00;98.10;;;;;;5037812;28;19939;-55
2021/07/20 09:37:35;;;;;;;;;;;20.00;99.70;;;;;;5072316;28;19916;-49
2021/07/20 09:40:31;;;;;;;;;;;20.10;98.20;;;;;;5054605;28;19958;-52
2021/07/20 09:43:00;;;;;;;;;;;20.20;98.80;;;;;;4998540;28;19929;-49
2021/07/20 09:45:32;;;;;;;;;;;20.10;99.20;;;;;;5072087;28;19913;-56
2021/07/20 09:48:01;;;;;;;;;;;20.20;98.70;;;;;;5070092;28;20374;-54
2021/07/20 09:50:29;;;;;;;;;;;20.60;99.90;;;;;;5072084;28;20306;-50
2021/07/20 09:53:03;;;;;;;;;;;21.20;98.90;;;;;;5071750;28;20371;-47
2021/07/20 09:55:47;;;;;;;;;;;21.70;99.90;;;;;;5071674;28;20014;-48
2021/07/20 09:58:31;;;;;;;;;;;22.00;98.00;;;;;;5071928;28;19962;-48
2021/07/20 10:01:03;;;;;;;;;;;21.60;95.90;;;;;;5072004;28;19951;-55
2021/07/20 10:03:47;;;;;;;;;;;21.60;97.20;;;;;;5072218;28;20003;-54
2021/07/20 10:06:13;;;;;;;;;;;21.50;97.40;;;;;;5071329;28;19912;-48
2021/07/20 10:08:57;;;;;;;;;;;21.60;96.40;;;;;;5071773;28;19912;-54
2021/07/20 10:11:32;;;;;;;;;;;21.30;95.70;;;;;;5068833;28;19915;-49
2021/07/20 10:13:57;;;;;;;;;;;21.40;98.20;;;;;;5071421;28;20007;-51
2021/07/20 10:16:31;;;;;;;;;;;21.40;97.80;;;;;;5071608;28;19999;-49
2021/07/20 10:19:17;;;;;;;;;;;21.60;98.00;;;;;;5071537;28;19909;-55
2021/07/20 10:21:47;;;;;;;;;;;22.00;96.90;;;;;;5029946;28;19908;-52
2021/07/20 10:24:14;;;;;;;;;;;22.20;96.00;;;;;;5071504;28;19908;-50
2021/07/20 10:27:01;;;;;;;;;;;22.10;95.50;;;;;;5071129;28;19916;-48
2021/07/20 10:29:42;;;;;;;;;;;22.10;95.70;;;;;;5064871;28;20340;-52
2021/07/20 10:32:08;;;;;;;;;;;22.10;96.30;;;;;;5070327;28;19916;-48
2021/07/20 10:34:33;;;;;;;;;;;22.30;96.00;;;;;;5071318;28;19909;-53
2021/07/20 10:37:01;;;;;;;;;;;22.40;96.00;;;;;;5071283;28;19979;-47
2021/07/20 10:39:31;;;;;;;;;;;22.40;96.30;;;;;;5064738;28;19938;-46
2021/07/20 10:41:56;;;;;;;;;;;22.50;96.60;;;;;;5071109;28;19966;-50
2021/07/20 10:44:29;;;;;;;;;;;22.50;95.70;;;;;;5070753;28;19909;-59
2021/07/20 10:46:56;;;;;;;;;;;22.60;96.00;;;;;;5070887;28;19952;-47
2021/07/20 10:49:30;;;;;;;;;;;22.20;96.00;;;;;;5070827;28;20403;-51
2021/07/20 10:52:01;;;;;;;;;;;22.30;96.40;;;;;;5071122;28;20023;-52
2021/07/20 10:54:29;;;;;;;;;;;22.40;96.50;;;;;;5070557;28;19952;-50
2021/07/20 10:56:55;;;;;;;;;;;22.60;96.20;;;;;;5070959;28;19913;-48
2021/07/20 10:59:45;;;;;;;;;;;22.70;96.40;;;;;;5070756;28;19908;-53
2021/07/20 11:02:21;;;;;;;;;;;23.00;97.40;;;;;;5053061;28;20030;-52
2021/07/20 11:04:51;;;;;;;;;;;22.90;95.40;;;;;;5070335;28;19918;-52
2021/07/20 11:07:36;;;;;;;;;;;22.30;94.70;;;;;;5063366;28;19952;-48
2021/07/20 11:10:13;;;;;;;;;;;22.20;96.00;;;;;;5069036;28;19915;-47
2021/07/20 11:12:40;;;;;;;;;;;22.10;96.10;;;;;;5070325;28;20375;-50
2021/07/20 11:15:06;;;;;;;;;;;22.20;95.80;;;;;;5070571;28;19909;-51
2021/07/20 11:17:37;;;;;;;;;;;22.20;95.30;;;;;;5070684;28;19915;-52
2021/07/20 11:20:06;;;;;;;;;;;22.10;96.10;;;;;;5070285;28;20359;-52
2021/07/20 11:22:32;;;;;;;;;;;22.00;95.80;;;;;;5070417;28;19915;-50
2021/07/20 11:24:57;;;;;;;;;;;22.30;97.40;;;;;;5070095;28;19909;-47
2021/07/20 11:27:23;;;;;;;;;;;22.70;95.90;;;;;;5070295;28;19955;-47
2021/07/20 11:29:50;;;;;;;;;;;23.00;95.80;;;;;;5070232;28;19961;-53
2021/07/20 11:32:19;;;;;;;;;;;23.20;95.70;;;;;;5043985;28;19947;-49
2021/07/20 11:34:48;;;;;;;;;;;23.10;95.90;;;;;;5070218;28;19919;-53
2021/07/20 11:37:20;;;;;;;;;;;23.40;96.10;;;;;;5070571;28;19916;-54
2021/07/20 11:39:48;;;;;;;;;;;23.70;95.00;;;;;;5052056;28;20242;-49
2021/07/20 11:42:17;;;;;;;;;;;23.90;94.80;;;;;;5070231;28;19909;-55
2021/07/20 11:44:50;;;;;;;;;;;23.90;95.50;;;;;;5069866;28;19915;-48
2021/07/20 11:47:31;;;;;;;;;;;23.90;94.30;;;;;;5064805;28;19916;-51
2021/07/20 11:50:01;;;;;;;;;;;24.00;94.70;;;;;;5070144;28;19915;-55
2021/07/20 11:52:47;;;;;;;;;;;23.90;94.90;;;;;;5052075;28;19909;-51
2021/07/20 11:55:23;;;;;;;;;;;23.90;94.70;;;;;;5031353;28;20046;-49
2021/07/20 11:57:55;;;;;;;;;;;23.70;94.20;;;;;;5070089;28;20287;-52
2021/07/20 12:00:30;;;;;;;;;;;23.70;94.00;;;;;;5062589;28;19916;-51
2021/07/20 12:03:14;;;;;;;;;;;23.70;94.40;;;;;;5069999;28;19934;-53
2021/07/20 12:05:58;;;;;;;;;;;23.80;95.00;;;;;;5070042;28;19932;-56
2021/07/20 12:08:29;;;;;;;;;;;23.90;93.90;;;;;;5063308;28;20035;-52
2021/07/20 12:11:00;;;;;;;;;;;24.00;93.70;;;;;;5069892;28;19962;-52
2021/07/20 12:13:26;;;;;;;;;;;23.90;92.90;;;;;;5063355;28;19913;-51
2021/07/20 12:15:56;;;;;;;;;;;23.70;93.60;;;;;;5051608;28;19916;-51
2021/07/20 12:18:21;;;;;;;;;;;23.50;94.30;;;;;;5069762;28;20330;-49
2021/07/20 12:20:48;;;;;;;;;;;23.40;94.40;;;;;;5069875;28;20026;-49
2021/07/20 12:23:13;;;;;;;;;;;23.30;95.10;;;;;;5069754;28;19908;-49
2021/07/20 12:25:39;;;;;;;;;;;23.10;95.70;;;;;;5069593;28;19918;-53
2021/07/20 12:28:05;;;;;;;;;;;23.30;96.10;;;;;;5069751;28;20389;-58
2021/07/20 12:30:32;;;;;;;;;;;23.30;96.40;;;;;;5069808;28;19909;-50
2021/07/20 12:32:59;;;;;;;;;;;23.30;96.10;;;;;;5069356;28;19916;-49
2021/07/20 12:35:25;;;;;;;;;;;23.30;95.80;;;;;;5069575;28;19913;-51
2021/07/20 12:38:01;;;;;;;;;;;23.40;96.00;;;;;;5070016;28;20389;-51
2021/07/20 12:40:27;;;;;;;;;;;23.50;96.40;;;;;;5069776;28;19908;-52
2021/07/20 12:42:53;;;;;;;;;;;23.70;96.20;;;;;;5069459;28;20403;-51
2021/07/20 12:45:20;;;;;;;;;;;23.80;95.70;;;;;;5069498;28;19919;-52
2021/07/20 12:47:46;;;;;;;;;;;23.50;94.90;;;;;;5069599;28;19913;-54
2021/07/20 12:50:13;;;;;;;;;;;23.20;95.50;;;;;;5070254;28;19909;-55
2021/07/20 12:52:40;;;;;;;;;;;23.20;96.40;;;;;;5073112;28;20397;-52
2021/07/20 12:55:16;;;;;;;;;;;23.30;96.20;;;;;;5073054;28;19908;-52
2021/07/20 12:57:50;;;;;;;;;;;23.30;96.90;;;;;;5073169;28;19986;-51
2021/07/20 13:00:19;;;;;;;;;;;23.30;97.20;;;;;;5065281;28;20346;-50
2021/07/20 13:02:45;;;;;;;;;;;23.40;96.40;;;;;;5073413;28;19924;-51
2021/07/20 13:05:12;;;;;;;;;;;22.90;95.20;;;;;;5072779;28;20546;-51
2021/07/20 13:07:37;;;;;;;;;;;22.60;95.80;;;;;;5073244;28;20378;-59
2021/07/20 13:10:04;;;;;;;;;;;22.60;97.40;;;;;;5055352;28;19909;-51
2021/07/20 13:12:30;;;;;;;;;;;22.80;97.00;;;;;;5072743;28;19913;-49
2021/07/20 13:15:08;;;;;;;;;;;22.90;96.80;;;;;;5072930;28;20228;-51
2021/07/20 13:17:35;;;;;;;;;;;23.00;96.30;;;;;;5073069;28;19992;-51
2021/07/20 13:20:04;;;;;;;;;;;23.00;96.90;;;;;;5072850;28;19916;-51
2021/07/20 13:22:29;;;;;;;;;;;23.00;96.60;;;;;;5054521;28;19909;-54
2021/07/20 13:24:54;;;;;;;;;;;23.00;96.50;;;;;;5072324;28;20278;-51
2021/07/20 13:27:20;;;;;;;;;;;23.00;97.10;;;;;;5072804;28;19908;-52
2021/07/20 13:29:47;;;;;;;;;;;23.10;97.60;;;;;;5072646;28;20009;-52
2021/07/20 13:32:13;;;;;;;;;;;23.10;97.20;;;;;;5100726;22;19940;-59
2021/07/20 13:34:38;;;;;;;;;;;23.20;96.80;;;;;;5073342;28;19908;-57
2021/07/20 13:37:04;;;;;;;;;;;23.00;97.20;;;;;;5074548;28;20014;-56
2021/07/20 13:39:30;;;;;;;;;;;23.00;96.90;;;;;;5093816;28;19948;-58
2021/07/20 13:41:55;;;;;;;;;;;22.90;97.70;;;;;;5093820;28;19912;-59
2021/07/20 13:44:22;;;;;;;;;;;22.90;97.40;;;;;;5092640;28;20423;-60
2021/07/20 13:46:50;;;;;;;;;;;22.90;97.30;;;;;;5093363;28;19912;-58
2021/07/20 13:49:18;;;;;;;;;;;22.90;97.20;;;;;;5089489;28;19954;-59
2021/07/20 13:51:46;;;;;;;;;;;22.90;98.20;;;;;;5092274;28;19908;-58
2021/07/20 13:54:13;;;;;;;;;;;23.00;97.50;;;;;;5092452;28;20327;-57
2021/07/20 13:56:41;;;;;;;;;;;23.00;97.50;;;;;;5092528;28;19940;-57
2021/07/20 13:59:07;;;;;;;;;;;23.10;96.80;;;;;;5092232;28;20014;-59
2021/07/20 14:01:35;;;;;;;;;;;23.10;97.40;;;;;;5091808;28;19961;-58
2021/07/20 14:04:01;;;;;;;;;;;23.00;95.50;;;;;;5092150;28;19912;-59
2021/07/20 14:06:27;;;;;;;;;;;22.90;96.80;;;;;;5091935;28;19912;-60
2021/07/20 14:08:53;;;;;;;;;;;22.90;96.20;;;;;;5093752;28;20412;-59
2021/07/20 14:11:19;;;;;;;;;;;22.90;96.60;;;;;;5092468;28;20283;-56
2021/07/20 14:13:45;;;;;;;;;;;22.80;97.70;;;;;;5091968;28;19908;-57
2021/07/20 14:16:12;;;;;;;;;;;22.80;97.40;;;;;;5091668;28;19907;-58
2021/07/20 14:18:38;;;;;;;;;;;22.70;97.60;;;;;;5092144;28;19915;-58
2021/07/20 14:21:06;;;;;;;;;;;22.60;97.70;;;;;;5092011;28;20525;-58
2021/07/20 14:23:34;;;;;;;;;;;22.40;98.50;;;;;;5091818;28;19908;-58
2021/07/20 14:26:00;;;;;;;;;;;22.20;98.90;;;;;;5091773;28;19916;-58